Time,TemperatureF,DewpointF,PressureIn,WindDirection,WindDirectionDegrees,WindSpeedMPH,WindSpeedGustMPH,Humidity,HourlyPrecipIn,Conditions,Clouds,dailyrainin,SolarRadiationWatts/m^2,SoftwareType,DateUTC
2013-03-14 00:02:00,64.0,61.0,-100.00,NNE,18,5.0,8.0,89,0.00,,,0.00,0.000000,,2013-03-14 10:02:00,
2013-03-14 00:12:00,64.0,61.0,-100.00,NNE,18,5.0,8.0,89,0.00,,,0.00,0.000000,,2013-03-14 10:12:00,
2013-03-14 00:22:00,64.0,61.0,-100.00,NNE,18,5.0,8.0,89,0.00,,,0.00,0.000000,,2013-03-14 10:22:00,
2013-03-14 00:31:00,64.0,61.0,-100.00,NNE,18,5.0,8.0,89,0.00,,,0.00,0.000000,,2013-03-14 10:31:00,
2013-03-14 01:02:00,61.0,58.0,-100.00,NNE,17,5.0,8.0,90,0.00,,,0.00,0.000000,,2013-03-14 11:02:00,
2013-03-14 01:12:00,61.0,58.0,-100.00,NNE,17,5.0,8.0,90,0.00,,,0.00,0.000000,,2013-03-14 11:12:00,
2013-03-14 01:22:00,61.0,58.0,-100.00,NNE,17,5.0,8.0,90,0.00,,,0.00,0.000000,,2013-03-14 11:22:00,
2013-03-14 01:32:00,61.0,58.0,-100.00,NNE,17,5.0,8.0,90,0.00,,,0.00,0.000000,,2013-03-14 11:32:00,
2013-03-14 02:02:00,60.0,55.0,-100.00,NNE,21,5.0,10.0,85,0.00,,,0.00,0.000000,,2013-03-14 12:02:00,
2013-03-14 02:12:00,60.0,55.0,-100.00,NNE,21,5.0,10.0,85,0.00,,,0.00,0.000000,,2013-03-14 12:12:00,
2013-03-14 02:22:00,60.0,55.0,-100.00,NNE,21,5.0,10.0,85,0.00,,,0.00,0.000000,,2013-03-14 12:22:00,
2013-03-14 02:32:00,60.0,55.0,-100.00,NNE,21,5.0,10.0,85,0.00,,,0.00,0.000000,,2013-03-14 12:32:00,
2013-03-14 03:02:00,61.0,57.0,-100.00,NNE,18,5.0,9.0,87,0.00,,,0.00,0.000000,,2013-03-14 13:02:00,
2013-03-14 03:12:00,61.0,57.0,-100.00,NNE,18,5.0,9.0,87,0.00,,,0.00,0.000000,,2013-03-14 13:12:00,
2013-03-14 03:22:00,61.0,57.0,-100.00,NNE,18,5.0,9.0,87,0.00,,,0.00,0.000000,,2013-03-14 13:22:00,
2013-03-14 03:32:00,61.0,57.0,-100.00,NNE,18,5.0,9.0,87,0.00,,,0.00,0.000000,,2013-03-14 13:32:00,
2013-03-14 04:02:00,63.0,59.0,-100.00,NNE,15,4.0,8.0,88,0.00,,,0.00,0.000000,,2013-03-14 14:02:00,
2013-03-14 04:12:00,63.0,59.0,-100.00,NNE,15,4.0,8.0,88,0.00,,,0.00,0.000000,,2013-03-14 14:12:00,
2013-03-14 04:22:00,63.0,59.0,-100.00,NNE,15,4.0,8.0,88,0.00,,,0.00,0.000000,,2013-03-14 14:22:00,
2013-03-14 04:32:00,63.0,59.0,-100.00,NNE,15,4.0,8.0,88,0.00,,,0.00,0.000000,,2013-03-14 14:32:00,
2013-03-14 05:02:00,61.0,56.0,-100.00,NNE,23,5.0,9.0,85,0.00,,,0.00,0.000000,,2013-03-14 15:02:00,
2013-03-14 05:12:00,61.0,56.0,-100.00,NNE,23,5.0,9.0,85,0.00,,,0.00,0.000000,,2013-03-14 15:12:00,
2013-03-14 05:22:00,61.0,56.0,-100.00,NNE,23,5.0,9.0,85,0.00,,,0.00,0.000000,,2013-03-14 15:22:00,
2013-03-14 05:32:00,61.0,56.0,-100.00,NNE,23,5.0,9.0,85,0.00,,,0.00,0.000000,,2013-03-14 15:32:00,
2013-03-14 05:52:00,60.0,55.0,-100.00,NNE,21,6.0,9.0,85,0.00,,,0.00,0.000000,,2013-03-14 15:52:00,
2013-03-14 06:02:00,60.0,55.0,-100.00,NNE,21,6.0,9.0,85,0.00,,,0.00,0.000000,,2013-03-14 16:02:00,
2013-03-14 06:12:00,60.0,55.0,-100.00,NNE,21,6.0,9.0,85,0.00,,,0.00,0.000000,,2013-03-14 16:12:00,
2013-03-14 06:22:00,60.0,55.0,-100.00,NNE,21,6.0,9.0,85,0.00,,,0.00,0.000000,,2013-03-14 16:22:00,
2013-03-14 06:32:00,60.0,55.0,-100.00,NNE,21,6.0,9.0,85,0.00,,,0.00,0.000000,,2013-03-14 16:32:00,
2013-03-14 06:52:00,59.0,55.0,-100.00,NNE,19,5.0,10.0,88,0.00,,,0.00,0.000000,,2013-03-14 16:52:00,
2013-03-14 07:02:00,59.0,55.0,-100.00,NNE,19,5.0,10.0,88,0.00,,,0.00,0.000000,,2013-03-14 17:02:00,
2013-03-14 07:12:00,59.0,55.0,-100.00,NNE,19,5.0,10.0,88,0.00,,,0.00,0.000000,,2013-03-14 17:12:00,
2013-03-14 07:23:00,59.0,55.0,-100.00,NNE,19,5.0,10.0,88,0.00,,,0.00,0.000000,,2013-03-14 17:23:00,
2013-03-14 07:31:00,59.0,55.0,-100.00,NNE,19,5.0,10.0,88,0.00,,,0.00,0.000000,,2013-03-14 17:31:00,
2013-03-14 07:52:00,61.0,55.0,-100.00,NNE,21,5.0,10.0,82,0.00,,,0.00,0.000000,,2013-03-14 17:52:00,
2013-03-14 08:02:00,61.0,55.0,-100.00,NNE,21,5.0,10.0,82,0.00,,,0.00,0.000000,,2013-03-14 18:02:00,
2013-03-14 08:12:00,61.0,55.0,-100.00,NNE,21,5.0,10.0,82,0.00,,,0.00,0.000000,,2013-03-14 18:12:00,
2013-03-14 08:22:00,61.0,55.0,-100.00,NNE,21,5.0,10.0,82,0.00,,,0.00,0.000000,,2013-03-14 18:22:00,
2013-03-14 08:32:00,61.0,55.0,-100.00,NNE,21,5.0,10.0,82,0.00,,,0.00,0.000000,,2013-03-14 18:32:00,
2013-03-14 08:52:00,73.0,59.0,-100.00,NE,49,2.0,8.0,61,0.00,,,0.00,37.000000,,2013-03-14 18:52:00,
2013-03-14 09:02:00,73.0,59.0,-100.00,NE,49,2.0,8.0,61,0.00,,,0.00,37.000000,,2013-03-14 19:02:00,
2013-03-14 09:12:00,73.0,59.0,-100.00,NE,49,2.0,8.0,61,0.00,,,0.00,37.000000,,2013-03-14 19:12:00,
2013-03-14 09:22:00,73.0,59.0,-100.00,NE,49,2.0,8.0,61,0.00,,,0.00,37.000000,,2013-03-14 19:22:00,
2013-03-14 09:32:00,73.0,59.0,-100.00,NE,49,2.0,8.0,61,0.00,,,0.00,37.000000,,2013-03-14 19:32:00,
2013-03-14 11:02:00,75.0,57.0,-100.00,South,173,4.0,9.0,53,-99.99,,,0.00,514.000000,,2013-03-14 21:02:00,
2013-03-14 11:12:00,75.0,57.0,-100.00,South,173,4.0,9.0,53,-99.99,,,0.00,514.000000,,2013-03-14 21:12:00,
2013-03-14 11:22:00,75.0,57.0,-100.00,South,173,4.0,9.0,53,-99.99,,,0.00,514.000000,,2013-03-14 21:22:00,
2013-03-14 11:32:00,75.0,57.0,-100.00,South,173,4.0,9.0,53,-99.99,,,0.00,514.000000,,2013-03-14 21:32:00,
2013-03-14 12:03:00,77.0,59.0,-100.00,South,175,4.0,9.0,54,0.00,,,0.00,544.000000,,2013-03-14 22:03:00,
2013-03-14 12:12:00,77.0,59.0,-100.00,South,175,4.0,9.0,54,0.00,,,0.00,544.000000,,2013-03-14 22:12:00,
2013-03-14 12:23:00,77.0,59.0,-100.00,South,175,4.0,9.0,54,0.00,,,0.00,544.000000,,2013-03-14 22:23:00,
2013-03-14 12:32:00,77.0,59.0,-100.00,South,175,4.0,9.0,54,0.00,,,0.00,544.000000,,2013-03-14 22:32:00,
2013-03-14 13:02:00,77.0,58.0,-100.00,SW,220,4.0,13.0,52,0.00,,,-99.99,626.000000,,2013-03-14 23:02:00,
2013-03-14 13:12:00,77.0,58.0,-100.00,SW,220,4.0,13.0,52,0.00,,,-99.99,626.000000,,2013-03-14 23:12:00,
2013-03-14 13:22:00,77.0,58.0,-100.00,SW,220,4.0,13.0,52,0.00,,,-99.99,626.000000,,2013-03-14 23:22:00,
2013-03-14 13:32:00,77.0,58.0,-100.00,SW,220,4.0,13.0,52,0.00,,,-99.99,626.000000,,2013-03-14 23:32:00,
2013-03-14 14:02:00,77.0,56.0,-100.00,SW,220,6.0,13.0,48,0.00,,,0.00,716.000000,,2013-03-15 00:02:00,
2013-03-14 14:12:00,77.0,56.0,-100.00,SW,220,6.0,13.0,48,0.00,,,0.00,716.000000,,2013-03-15 00:12:00,
2013-03-14 14:22:00,77.0,56.0,-100.00,SW,220,6.0,13.0,48,0.00,,,0.00,716.000000,,2013-03-15 00:22:00,
2013-03-14 14:32:00,77.0,56.0,-100.00,SW,220,6.0,13.0,48,0.00,,,0.00,716.000000,,2013-03-15 00:32:00,
2013-03-14 15:02:00,80.0,58.0,-100.00,South,185,5.0,13.0,47,0.00,,,0.00,893.000000,,2013-03-15 01:02:00,
2013-03-14 15:11:00,80.0,58.0,-100.00,South,185,5.0,13.0,47,0.00,,,0.00,893.000000,,2013-03-15 01:11:00,
2013-03-14 15:22:00,80.0,58.0,-100.00,South,185,5.0,13.0,47,0.00,,,0.00,893.000000,,2013-03-15 01:22:00,
2013-03-14 15:32:00,80.0,58.0,-100.00,South,185,5.0,13.0,47,0.00,,,0.00,893.000000,,2013-03-15 01:32:00,
2013-03-14 16:02:00,78.0,57.0,-100.00,SSW,202,5.0,14.0,48,0.00,,,0.00,944.000000,,2013-03-15 02:02:00,
2013-03-14 16:12:00,78.0,57.0,-100.00,SSW,202,5.0,14.0,48,0.00,,,0.00,944.000000,,2013-03-15 02:12:00,
2013-03-14 16:22:00,78.0,57.0,-100.00,SSW,202,5.0,14.0,48,0.00,,,0.00,944.000000,,2013-03-15 02:22:00,
2013-03-14 16:32:00,78.0,57.0,-100.00,SSW,202,5.0,14.0,48,0.00,,,0.00,944.000000,,2013-03-15 02:32:00,
2013-03-14 17:02:00,73.0,53.0,-100.00,SSW,195,6.0,13.0,49,0.00,,,0.00,759.000000,,2013-03-15 03:02:00,
2013-03-14 17:12:00,73.0,53.0,-100.00,SSW,195,6.0,13.0,49,0.00,,,0.00,759.000000,,2013-03-15 03:12:00,
2013-03-14 17:22:00,73.0,53.0,-100.00,SSW,195,6.0,13.0,49,0.00,,,0.00,759.000000,,2013-03-15 03:22:00,
2013-03-14 17:32:00,73.0,53.0,-100.00,SSW,195,6.0,13.0,49,0.00,,,0.00,759.000000,,2013-03-15 03:32:00,
2013-03-14 18:03:00,70.0,54.0,-100.00,South,183,5.0,9.0,56,0.00,,,0.00,469.000000,,2013-03-15 04:03:00,
2013-03-14 18:12:00,70.0,54.0,-100.00,South,183,5.0,9.0,56,0.00,,,0.00,469.000000,,2013-03-15 04:12:00,
2013-03-14 18:22:00,70.0,54.0,-100.00,South,183,5.0,9.0,56,0.00,,,0.00,469.000000,,2013-03-15 04:22:00,
2013-03-14 18:32:00,70.0,54.0,-100.00,South,183,5.0,9.0,56,0.00,,,0.00,469.000000,,2013-03-15 04:32:00,
2013-03-14 19:02:00,68.0,58.0,-100.00,NNE,32,2.0,7.0,70,0.00,,,0.00,175.000000,,2013-03-15 05:02:00,
2013-03-14 19:12:00,68.0,58.0,-100.00,NNE,32,2.0,7.0,70,0.00,,,0.00,175.000000,,2013-03-15 05:12:00,
2013-03-14 19:22:00,68.0,58.0,-100.00,NNE,32,2.0,7.0,70,0.00,,,0.00,175.000000,,2013-03-15 05:22:00,
2013-03-14 19:32:00,68.0,58.0,-100.00,NNE,32,2.0,7.0,70,0.00,,,0.00,175.000000,,2013-03-15 05:32:00,
2013-03-14 19:52:00,64.0,57.0,-100.00,NNE,18,4.0,7.0,79,0.00,,,0.00,60.000000,,2013-03-15 05:52:00,
2013-03-14 20:02:00,64.0,57.0,-100.00,NNE,18,4.0,7.0,79,0.00,,,0.00,60.000000,,2013-03-15 06:02:00,
2013-03-14 20:12:00,64.0,57.0,-100.00,NNE,18,4.0,7.0,79,0.00,,,0.00,60.000000,,2013-03-15 06:12:00,
2013-03-14 20:22:00,64.0,57.0,-100.00,NNE,18,4.0,7.0,79,0.00,,,0.00,60.000000,,2013-03-15 06:22:00,
2013-03-14 20:32:00,64.0,57.0,-100.00,NNE,18,4.0,7.0,79,0.00,,,0.00,60.000000,,2013-03-15 06:32:00,
2013-03-14 21:02:00,62.0,55.0,-100.00,NNE,18,5.0,8.0,79,0.00,,,0.00,0.000000,,2013-03-15 07:02:00,
2013-03-14 21:12:00,62.0,55.0,-100.00,NNE,18,5.0,8.0,79,0.00,,,0.00,0.000000,,2013-03-15 07:12:00,
2013-03-14 21:22:00,62.0,55.0,-100.00,NNE,18,5.0,8.0,79,0.00,,,0.00,0.000000,,2013-03-15 07:22:00,
2013-03-14 21:32:00,62.0,55.0,-100.00,NNE,18,5.0,8.0,79,0.00,,,0.00,0.000000,,2013-03-15 07:32:00,
2013-03-14 22:02:00,63.0,57.0,-100.00,NNE,16,5.0,8.0,81,0.00,,,0.00,0.000000,,2013-03-15 08:02:00,
2013-03-14 22:12:00,63.0,57.0,-100.00,NNE,16,5.0,8.0,81,0.00,,,0.00,0.000000,,2013-03-15 08:12:00,
2013-03-14 22:22:00,63.0,57.0,-100.00,NNE,16,5.0,8.0,81,0.00,,,0.00,0.000000,,2013-03-15 08:22:00,
2013-03-14 22:32:00,63.0,57.0,-100.00,NNE,16,5.0,8.0,81,0.00,,,0.00,0.000000,,2013-03-15 08:32:00,
2013-03-14 22:52:00,62.0,57.0,-100.00,NNE,17,6.0,9.0,83,0.00,,,0.00,0.000000,,2013-03-15 08:52:00,
2013-03-14 23:02:00,62.0,57.0,-100.00,NNE,17,6.0,9.0,83,0.00,,,0.00,0.000000,,2013-03-15 09:02:00,
2013-03-14 23:12:00,62.0,57.0,-100.00,NNE,17,6.0,9.0,83,0.00,,,0.00,0.000000,,2013-03-15 09:12:00,
2013-03-14 23:21:00,62.0,57.0,-100.00,NNE,17,6.0,9.0,83,0.00,,,0.00,0.000000,,2013-03-15 09:21:00,
2013-03-14 23:33:00,62.0,57.0,-100.00,NNE,17,6.0,9.0,83,0.00,,,0.00,0.000000,,2013-03-15 09:33:00,